createdAt,value
2022-09-21T00:00:04.591Z,18
2022-09-21T00:10:04.609Z,18
2022-09-21T00:20:04.656Z,18
2022-09-21T00:30:04.517Z,18
2022-09-21T00:40:04.674Z,18
2022-09-21T00:50:04.531Z,18
2022-09-21T01:00:04.598Z,17.5
2022-09-21T01:10:04.731Z,17.5
2022-09-21T01:20:04.619Z,17.5
2022-09-21T01:30:04.789Z,17.5
2022-09-21T01:40:04.608Z,16.5
2022-09-21T01:50:04.815Z,17
2022-09-21T02:00:04.595Z,16.5
2022-09-21T02:10:04.711Z,16.5
2022-09-21T02:20:04.578Z,16.5
2022-09-21T02:30:04.730Z,16.5
2022-09-21T02:40:04.649Z,17
2022-09-21T02:50:04.772Z,16.5
2022-09-21T03:00:04.793Z,16
2022-09-21T03:10:04.700Z,16
2022-09-21T03:20:04.779Z,16
2022-09-21T03:30:04.689Z,16
2022-09-21T03:40:04.798Z,17
2022-09-21T03:50:09.197Z,17
2022-09-21T04:00:04.759Z,17
2022-09-21T04:10:04.727Z,18
2022-09-21T04:20:04.781Z,17.5
2022-09-21T04:30:04.961Z,17.5
2022-09-21T04:40:04.792Z,17.5
2022-09-21T04:50:04.885Z,16.5
2022-09-21T05:00:04.749Z,16.5
2022-09-21T05:10:04.877Z,15.5
2022-09-21T05:20:04.770Z,16
2022-09-21T05:30:04.895Z,15.5
2022-09-21T05:40:05.007Z,15.5
2022-09-21T05:50:04.905Z,15.5
2022-09-21T06:00:04.950Z,15.5
2022-09-21T06:10:04.884Z,16
2022-09-21T06:20:04.943Z,16
2022-09-21T06:30:04.907Z,16
2022-09-21T06:40:04.983Z,16
2022-09-21T06:50:05.049Z,17
2022-09-21T07:00:04.944Z,18.5
2022-09-21T07:10:05.983Z,20
2022-09-21T07:20:04.915Z,18.5
2022-09-21T07:30:05.039Z,19
2022-09-21T07:40:04.957Z,20
2022-09-21T07:50:05.080Z,19.5
2022-09-21T08:00:04.910Z,20
2022-09-21T08:10:05.031Z,18.5
2022-09-21T08:20:05.117Z,19
2022-09-21T08:30:05.137Z,20
2022-09-21T08:40:05.187Z,20
2022-09-21T08:50:05.042Z,21
2022-09-21T09:00:05.137Z,22
2022-09-21T09:10:05.056Z,21.5
2022-09-21T09:20:05.137Z,22
2022-09-21T09:30:05.038Z,22
2022-09-21T09:40:05.174Z,21.5
2022-09-21T09:50:05.373Z,21.5
2022-09-21T10:00:05.370Z,20.5
2022-09-21T10:10:05.255Z,20.5
2022-09-21T10:20:05.159Z,21.5
2022-09-21T10:30:05.236Z,21.5
2022-09-21T10:40:05.613Z,21
2022-09-21T10:50:05.253Z,21
2022-09-21T11:00:05.145Z,20.5
2022-09-21T11:10:05.269Z,20.5
2022-09-21T11:20:05.335Z,21
2022-09-21T11:30:05.241Z,21.5
2022-09-21T11:40:05.342Z,21.5
2022-09-21T11:50:29.053Z,22.5
2022-09-21T12:00:06.482Z,22.5
2022-09-21T12:10:08.804Z,22.5
2022-09-21T12:20:05.555Z,23
2022-09-21T12:30:05.446Z,22.5
2022-09-21T12:40:05.633Z,21.5
2022-09-21T12:50:05.290Z,21
2022-09-21T13:00:05.419Z,20.5
2022-09-21T13:10:05.783Z,21
2022-09-21T13:20:05.610Z,21
2022-09-21T13:30:05.461Z,20.5
2022-09-21T13:40:05.436Z,19.5
2022-09-21T13:50:05.362Z,20
2022-09-21T14:00:05.423Z,19.5
2022-09-21T14:10:05.363Z,19.5
2022-09-21T14:20:05.394Z,20
2022-09-21T14:30:07.709Z,20
2022-09-21T14:40:05.397Z,20
2022-09-21T14:50:07.004Z,20.5
2022-09-21T15:00:05.394Z,21
2022-09-21T15:10:05.546Z,21
2022-09-21T15:20:05.369Z,21
2022-09-21T15:30:05.502Z,21
2022-09-21T15:40:05.410Z,21
2022-09-21T15:50:05.718Z,21
2022-09-21T16:00:05.606Z,21
2022-09-21T16:10:05.492Z,21
2022-09-21T16:20:05.579Z,20.5
2022-09-21T16:30:05.523Z,20.5
2022-09-21T16:40:05.723Z,20.5
2022-09-21T16:50:05.563Z,21
2022-09-21T17:00:05.629Z,20.5
2022-09-21T17:10:05.714Z,19.5
2022-09-21T17:20:05.571Z,19.5
2022-09-21T17:30:05.715Z,19.5
2022-09-21T17:40:09.957Z,19.5
2022-09-21T17:50:05.905Z,19.5
2022-09-21T18:00:05.689Z,19.5
2022-09-21T18:10:06.166Z,19.5
2022-09-21T18:20:05.606Z,19
2022-09-21T18:30:05.818Z,18.5
2022-09-21T18:40:05.906Z,18.5
2022-09-21T18:50:05.874Z,18.5
2022-09-21T19:00:05.903Z,18.5
2022-09-21T19:10:05.710Z,18.5
2022-09-21T19:20:05.787Z,18.5
2022-09-21T19:30:05.690Z,18.5
2022-09-21T19:40:05.806Z,18.5
2022-09-21T19:50:05.693Z,18
2022-09-21T20:00:05.976Z,18
2022-09-21T20:10:05.871Z,18
2022-09-21T20:20:05.754Z,18
2022-09-21T20:30:06.008Z,18
2022-09-21T20:40:05.979Z,17.5
2022-09-21T20:50:05.911Z,17.5
2022-09-21T21:00:05.744Z,17.5
2022-09-21T21:10:05.876Z,17.5
2022-09-21T21:20:05.751Z,17.5
2022-09-21T21:30:05.865Z,17.5
2022-09-21T21:40:06.014Z,17.5
2022-09-21T21:50:05.894Z,17
2022-09-21T22:00:05.972Z,16.5
2022-09-21T22:10:05.853Z,17
2022-09-21T22:20:05.955Z,16.5
2022-09-21T22:30:06.027Z,16.5
2022-09-21T22:40:05.999Z,16.5
2022-09-21T22:50:06.087Z,16.5
2022-09-21T23:00:05.909Z,16.5
2022-09-21T23:10:06.033Z,16.5
2022-09-21T23:20:05.922Z,16.5
2022-09-21T23:30:06.047Z,16
2022-09-21T23:40:06.006Z,15.5
2022-09-21T23:50:06.070Z,15.5
